sensor_id;sensor_type;location;lat;lon;timestamp;P1;durP1;ratioP1;P2;durP2;ratioP2
26036;SDS011;13810;48.376;10.944;2023-05-07T00:00:19;10.23;;;6.53;;
26036;SDS011;13810;48.376;10.944;2023-05-07T00:00:50;11.55;;;7.75;;
26036;SDS011;13810;48.376;10.944;2023-05-07T00:01:21;12.85;;;7.38;;
26036;SDS011;13810;48.376;10.944;2023-05-07T00:01:52;11.13;;;7.18;;
26036;SDS011;13810;48.376;10.944;2023-05-07T00:02:23;9.25;;;7.05;;
26036;SDS011;13810;48.376;10.944;2023-05-07T00:02:53;11.40;;;7.38;;
26036;SDS011;13810;48.376;10.944;2023-05-07T00:03:24;14.57;;;7.75;;
26036;SDS011;13810;48.376;10.944;2023-05-07T00:03:56;10.77;;;7.18;;
26036;SDS011;13810;48.376;10.944;2023-05-07T00:04:27;9.27;;;6.53;;
26036;SDS011;13810;48.376;10.944;2023-05-07T00:04:58;10.52;;;6.68;;
26036;SDS011;13810;48.376;10.944;2023-05-07T00:05:29;11.02;;;7.32;;
26036;SDS011;13810;48.376;10.944;2023-05-07T00:05:59;9.55;;;6.88;;
26036;SDS011;13810;48.376;10.944;2023-05-07T00:06:31;9.88;;;6.43;;
26036;SDS011;13810;48.376;10.944;2023-05-07T00:07:03;10.30;;;7.18;;
26036;SDS011;13810;48.376;10.944;2023-05-07T00:07:34;11.85;;;7.72;;
26036;SDS011;13810;48.376;10.944;2023-05-07T00:08:04;9.45;;;6.43;;
26036;SDS011;13810;48.376;10.944;2023-05-07T00:08:35;13.10;;;7.25;;
26036;SDS011;13810;48.376;10.944;2023-05-07T00:09:06;10.90;;;7.15;;
26036;SDS011;13810;48.376;10.944;2023-05-07T00:09:37;13.35;;;7.13;;
26036;SDS011;13810;48.376;10.944;2023-05-07T00:10:07;11.43;;;6.85;;
26036;SDS011;13810;48.376;10.944;2023-05-07T00:10:38;11.63;;;7.35;;
26036;SDS011;13810;48.376;10.944;2023-05-07T00:11:09;12.93;;;7.93;;
26036;SDS011;13810;48.376;10.944;2023-05-07T00:11:39;11.75;;;7.40;;
26036;SDS011;13810;48.376;10.944;2023-05-07T00:12:10;9.32;;;7.35;;
26036;SDS011;13810;48.376;10.944;2023-05-07T00:12:41;14.02;;;8.32;;
26036;SDS011;13810;48.376;10.944;2023-05-07T00:13:11;10.73;;;7.35;;
26036;SDS011;13810;48.376;10.944;2023-05-07T00:13:42;10.80;;;7.55;;
26036;SDS011;13810;48.376;10.944;2023-05-07T00:14:13;11.65;;;7.70;;
26036;SDS011;13810;48.376;10.944;2023-05-07T00:14:43;13.13;;;7.38;;
26036;SDS011;13810;48.376;10.944;2023-05-07T00:15:14;15.30;;;6.97;;
26036;SDS011;13810;48.376;10.944;2023-05-07T00:15:45;11.05;;;7.32;;
26036;SDS011;13810;48.376;10.944;2023-05-07T00:16:15;14.63;;;8.20;;
26036;SDS011;13810;48.376;10.944;2023-05-07T00:16:46;15.93;;;7.88;;
26036;SDS011;13810;48.376;10.944;2023-05-07T00:17:17;13.10;;;8.18;;
26036;SDS011;13810;48.376;10.944;2023-05-07T00:17:47;14.80;;;8.43;;
26036;SDS011;13810;48.376;10.944;2023-05-07T00:18:18;12.63;;;7.50;;
26036;SDS011;13810;48.376;10.944;2023-05-07T00:18:51;12.02;;;7.63;;
26036;SDS011;13810;48.376;10.944;2023-05-07T00:19:22;12.80;;;7.80;;
26036;SDS011;13810;48.376;10.944;2023-05-07T00:19:53;12.27;;;7.25;;
26036;SDS011;13810;48.376;10.944;2023-05-07T00:20:23;12.98;;;8.02;;
26036;SDS011;13810;48.376;10.944;2023-05-07T00:20:54;11.32;;;7.43;;
26036;SDS011;13810;48.376;10.944;2023-05-07T00:21:26;15.38;;;7.60;;
26036;SDS011;13810;48.376;10.944;2023-05-07T00:21:56;12.48;;;8.00;;
26036;SDS011;13810;48.376;10.944;2023-05-07T00:22:28;11.93;;;7.35;;
26036;SDS011;13810;48.376;10.944;2023-05-07T00:23:00;14.52;;;7.82;;
26036;SDS011;13810;48.376;10.944;2023-05-07T00:23:30;13.82;;;7.05;;
26036;SDS011;13810;48.376;10.944;2023-05-07T00:24:01;13.02;;;7.68;;
26036;SDS011;13810;48.376;10.944;2023-05-07T00:24:32;10.82;;;6.93;;
26036;SDS011;13810;48.376;10.944;2023-05-07T00:25:03;12.75;;;7.45;;
26036;SDS011;13810;48.376;10.944;2023-05-07T00:25:34;12.52;;;8.05;;
26036;SDS011;13810;48.376;10.944;2023-05-07T00:26:04;14.77;;;7.88;;
26036;SDS011;13810;48.376;10.944;2023-05-07T00:26:35;11.10;;;7.68;;
26036;SDS011;13810;48.376;10.944;2023-05-07T00:27:05;10.57;;;7.15;;
26036;SDS011;13810;48.376;10.944;2023-05-07T00:27:36;14.70;;;7.03;;
26036;SDS011;13810;48.376;10.944;2023-05-07T00:28:07;13.43;;;6.80;;
26036;SDS011;13810;48.376;10.944;2023-05-07T00:28:37;11.18;;;7.10;;
26036;SDS011;13810;48.376;10.944;2023-05-07T00:29:08;12.00;;;6.78;;
26036;SDS011;13810;48.376;10.944;2023-05-07T00:29:38;13.18;;;7.38;;
26036;SDS011;13810;48.376;10.944;2023-05-07T00:30:09;11.07;;;7.50;;
26036;SDS011;13810;48.376;10.944;2023-05-07T00:30:40;10.38;;;7.20;;
26036;SDS011;13810;48.376;10.944;2023-05-07T00:31:11;12.13;;;7.22;;
26036;SDS011;13810;48.376;10.944;2023-05-07T00:31:42;11.00;;;6.60;;
26036;SDS011;13810;48.376;10.944;2023-05-07T00:32:12;11.40;;;7.35;;
26036;SDS011;13810;48.376;10.944;2023-05-07T00:32:43;10.55;;;6.47;;
26036;SDS011;13810;48.376;10.944;2023-05-07T00:33:15;11.55;;;6.95;;
26036;SDS011;13810;48.376;10.944;2023-05-07T00:33:46;11.32;;;6.93;;
26036;SDS011;13810;48.376;10.944;2023-05-07T00:34:16;10.95;;;6.78;;
26036;SDS011;13810;48.376;10.944;2023-05-07T00:34:47;13.85;;;8.13;;
26036;SDS011;13810;48.376;10.944;2023-05-07T00:35:18;11.30;;;7.25;;
26036;SDS011;13810;48.376;10.944;2023-05-07T00:35:48;14.90;;;7.18;;
26036;SDS011;13810;48.376;10.944;2023-05-07T00:36:19;12.45;;;6.78;;
26036;SDS011;13810;48.376;10.944;2023-05-07T00:36:50;12.32;;;7.38;;
26036;SDS011;13810;48.376;10.944;2023-05-07T00:37:20;12.32;;;7.22;;
26036;SDS011;13810;48.376;10.944;2023-05-07T00:37:51;10.57;;;7.03;;
26036;SDS011;13810;48.376;10.944;2023-05-07T00:38:21;10.57;;;6.53;;
26036;SDS011;13810;48.376;10.944;2023-05-07T00:38:53;10.80;;;7.40;;
26036;SDS011;13810;48.376;10.944;2023-05-07T00:39:25;10.93;;;7.50;;
26036;SDS011;13810;48.376;10.944;2023-05-07T00:39:55;15.15;;;7.07;;
26036;SDS011;13810;48.376;10.944;2023-05-07T00:40:26;12.68;;;6.53;;
26036;SDS011;13810;48.376;10.944;2023-05-07T00:40:57;10.20;;;6.80;;
26036;SDS011;13810;48.376;10.944;2023-05-07T00:41:27;12.95;;;6.22;;
26036;SDS011;13810;48.376;10.944;2023-05-07T00:41:58;9.10;;;6.38;;
26036;SDS011;13810;48.376;10.944;2023-05-07T00:42:29;11.85;;;6.45;;
26036;SDS011;13810;48.376;10.944;2023-05-07T00:42:59;10.93;;;5.50;;
26036;SDS011;13810;48.376;10.944;2023-05-07T00:43:30;5.88;;;5.00;;
26036;SDS011;13810;48.376;10.944;2023-05-07T00:44:01;6.57;;;5.63;;
26036;SDS011;13810;48.376;10.944;2023-05-07T00:44:32;7.22;;;5.18;;
26036;SDS011;13810;48.376;10.944;2023-05-07T00:45:03;9.65;;;5.57;;
26036;SDS011;13810;48.376;10.944;2023-05-07T00:45:34;8.27;;;5.00;;
26036;SDS011;13810;48.376;10.944;2023-05-07T00:46:04;6.43;;;5.18;;
26036;SDS011;13810;48.376;10.944;2023-05-07T00:46:35;7.03;;;5.07;;
26036;SDS011;13810;48.376;10.944;2023-05-07T00:47:06;6.88;;;5.10;;
26036;SDS011;13810;48.376;10.944;2023-05-07T00:47:37;9.60;;;5.47;;
26036;SDS011;13810;48.376;10.944;2023-05-07T00:48:07;7.82;;;5.43;;
26036;SDS011;13810;48.376;10.944;2023-05-07T00:48:38;5.18;;;4.47;;
26036;SDS011;13810;48.376;10.944;2023-05-07T00:49:09;7.85;;;5.43;;
26036;SDS011;13810;48.376;10.944;2023-05-07T00:49:44;7.15;;;4.80;;
26036;SDS011;13810;48.376;10.944;2023-05-07T00:50:15;8.30;;;5.53;;
26036;SDS011;13810;48.376;10.944;2023-05-07T00:50:47;8.52;;;5.40;;
26036;SDS011;13810;48.376;10.944;2023-05-07T00:51:18;8.45;;;5.00;;
26036;SDS011;13810;48.376;10.944;2023-05-07T00:51:48;6.85;;;5.30;;
26036;SDS011;13810;48.376;10.944;2023-05-07T00:52:21;6.50;;;4.88;;
26036;SDS011;13810;48.376;10.944;2023-05-07T00:52:55;7.63;;;5.72;;
26036;SDS011;13810;48.376;10.944;2023-05-07T00:53:26;7.05;;;5.68;;
26036;SDS011;13810;48.376;10.944;2023-05-07T00:53:57;6.88;;;5.38;;
26036;SDS011;13810;48.376;10.944;2023-05-07T00:54:29;8.13;;;5.70;;
26036;SDS011;13810;48.376;10.944;2023-05-07T00:55:02;15.90;;;5.55;;
26036;SDS011;13810;48.376;10.944;2023-05-07T00:55:35;8.27;;;6.03;;
26036;SDS011;13810;48.376;10.944;2023-05-07T00:56:06;8.45;;;5.88;;
26036;SDS011;13810;48.376;10.944;2023-05-07T00:56:37;10.23;;;6.07;;
26036;SDS011;13810;48.376;10.944;2023-05-07T00:57:09;7.90;;;5.45;;
26036;SDS011;13810;48.376;10.944;2023-05-07T00:57:41;8.20;;;5.72;;
26036;SDS011;13810;48.376;10.944;2023-05-07T00:58:12;11.10;;;5.50;;
26036;SDS011;13810;48.376;10.944;2023-05-07T00:58:42;10.32;;;6.57;;
26036;SDS011;13810;48.376;10.944;2023-05-07T00:59:13;9.95;;;5.97;;
26036;SDS011;13810;48.376;10.944;2023-05-07T00:59:44;11.00;;;6.10;;
26036;SDS011;13810;48.376;10.944;2023-05-07T01:00:15;7.55;;;5.43;;
26036;SDS011;13810;48.376;10.944;2023-05-07T01:00:46;10.27;;;6.70;;
26036;SDS011;13810;48.376;10.944;2023-05-07T01:01:17;10.60;;;6.32;;
26036;SDS011;13810;48.376;10.944;2023-05-07T01:01:47;10.75;;;5.97;;
26036;SDS011;13810;48.376;10.944;2023-05-07T01:02:18;8.45;;;5.88;;
26036;SDS011;13810;48.376;10.944;2023-05-07T01:02:49;11.68;;;5.60;;
26036;SDS011;13810;48.376;10.944;2023-05-07T01:03:20;11.90;;;6.43;;
26036;SDS011;13810;48.376;10.944;2023-05-07T01:03:51;11.77;;;5.93;;
26036;SDS011;13810;48.376;10.944;2023-05-07T01:04:21;9.25;;;5.60;;
26036;SDS011;13810;48.376;10.944;2023-05-07T01:04:52;10.57;;;6.45;;
26036;SDS011;13810;48.376;10.944;2023-05-07T01:05:23;12.75;;;5.60;;
26036;SDS011;13810;48.376;10.944;2023-05-07T01:05:55;10.93;;;6.40;;
26036;SDS011;13810;48.376;10.944;2023-05-07T01:06:27;9.13;;;5.82;;
26036;SDS011;13810;48.376;10.944;2023-05-07T01:07:00;8.30;;;6.18;;
26036;SDS011;13810;48.376;10.944;2023-05-07T01:07:32;9.20;;;5.97;;
26036;SDS011;13810;48.376;10.944;2023-05-07T01:08:04;8.85;;;5.90;;
26036;SDS011;13810;48.376;10.944;2023-05-07T01:08:35;9.30;;;5.75;;
26036;SDS011;13810;48.376;10.944;2023-05-07T01:09:09;9.80;;;6.32;;
26036;SDS011;13810;48.376;10.944;2023-05-07T01:09:40;12.05;;;5.75;;
26036;SDS011;13810;48.376;10.944;2023-05-07T01:10:11;11.20;;;6.28;;
26036;SDS011;13810;48.376;10.944;2023-05-07T01:10:42;8.43;;;5.90;;
26036;SDS011;13810;48.376;10.944;2023-05-07T01:11:13;7.60;;;5.80;;
26036;SDS011;13810;48.376;10.944;2023-05-07T01:11:44;10.57;;;6.85;;
26036;SDS011;13810;48.376;10.944;2023-05-07T01:12:16;11.00;;;6.35;;
26036;SDS011;13810;48.376;10.944;2023-05-07T01:12:46;11.32;;;6.63;;
26036;SDS011;13810;48.376;10.944;2023-05-07T01:13:19;8.70;;;5.97;;
26036;SDS011;13810;48.376;10.944;2023-05-07T01:13:51;7.97;;;5.80;;
26036;SDS011;13810;48.376;10.944;2023-05-07T01:14:22;7.95;;;6.57;;
26036;SDS011;13810;48.376;10.944;2023-05-07T01:14:53;9.55;;;6.35;;
26036;SDS011;13810;48.376;10.944;2023-05-07T01:15:24;16.77;;;6.60;;
26036;SDS011;13810;48.376;10.944;2023-05-07T01:15:55;9.50;;;6.18;;
26036;SDS011;13810;48.376;10.944;2023-05-07T01:16:25;9.35;;;5.40;;
26036;SDS011;13810;48.376;10.944;2023-05-07T01:16:56;9.57;;;6.30;;
26036;SDS011;13810;48.376;10.944;2023-05-07T01:17:28;8.20;;;5.65;;
26036;SDS011;13810;48.376;10.944;2023-05-07T01:17:59;8.00;;;6.15;;
26036;SDS011;13810;48.376;10.944;2023-05-07T01:18:31;9.93;;;6.47;;
26036;SDS011;13810;48.376;10.944;2023-05-07T01:19:01;8.10;;;5.95;;
26036;SDS011;13810;48.376;10.944;2023-05-07T01:19:32;13.10;;;7.13;;
26036;SDS011;13810;48.376;10.944;2023-05-07T01:20:04;10.90;;;7.15;;
26036;SDS011;13810;48.376;10.944;2023-05-07T01:20:35;10.48;;;6.40;;
26036;SDS011;13810;48.376;10.944;2023-05-07T01:21:06;8.75;;;6.07;;
26036;SDS011;13810;48.376;10.944;2023-05-07T01:21:40;10.50;;;6.90;;
26036;SDS011;13810;48.376;10.944;2023-05-07T01:23:02;13.77;;;6.65;;
26036;SDS011;13810;48.376;10.944;2023-05-07T01:23:33;8.32;;;6.03;;
26036;SDS011;13810;48.376;10.944;2023-05-07T01:24:05;10.95;;;5.70;;
26036;SDS011;13810;48.376;10.944;2023-05-07T01:24:36;8.75;;;5.30;;
26036;SDS011;13810;48.376;10.944;2023-05-07T01:25:08;8.68;;;5.70;;
26036;SDS011;13810;48.376;10.944;2023-05-07T01:25:38;7.80;;;5.50;;
26036;SDS011;13810;48.376;10.944;2023-05-07T01:26:09;8.20;;;6.00;;
26036;SDS011;13810;48.376;10.944;2023-05-07T01:26:40;10.02;;;6.03;;
26036;SDS011;13810;48.376;10.944;2023-05-07T01:27:11;10.65;;;5.65;;
26036;SDS011;13810;48.376;10.944;2023-05-07T01:27:42;10.82;;;6.20;;
26036;SDS011;13810;48.376;10.944;2023-05-07T01:28:13;7.20;;;5.78;;
26036;SDS011;13810;48.376;10.944;2023-05-07T01:28:43;10.00;;;6.50;;
26036;SDS011;13810;48.376;10.944;2023-05-07T01:29:14;12.77;;;6.35;;
26036;SDS011;13810;48.376;10.944;2023-05-07T01:29:45;12.38;;;6.63;;
26036;SDS011;13810;48.376;10.944;2023-05-07T01:30:16;9.50;;;6.28;;
26036;SDS011;13810;48.376;10.944;2023-05-07T01:30:52;7.95;;;6.03;;
26036;SDS011;13810;48.376;10.944;2023-05-07T01:31:25;7.80;;;6.20;;
26036;SDS011;13810;48.376;10.944;2023-05-07T01:31:59;12.93;;;6.90;;
26036;SDS011;13810;48.376;10.944;2023-05-07T01:32:43;10.30;;;7.30;;
26036;SDS011;13810;48.376;10.944;2023-05-07T01:33:23;13.90;;;7.32;;
26036;SDS011;13810;48.376;10.944;2023-05-07T01:33:54;14.02;;;7.03;;
26036;SDS011;13810;48.376;10.944;2023-05-07T01:34:30;10.18;;;6.30;;
26036;SDS011;13810;48.376;10.944;2023-05-07T01:35:03;13.23;;;7.20;;
26036;SDS011;13810;48.376;10.944;2023-05-07T01:35:41;9.32;;;6.65;;
26036;SDS011;13810;48.376;10.944;2023-05-07T01:36:13;9.63;;;6.85;;
26036;SDS011;13810;48.376;10.944;2023-05-07T01:36:45;9.77;;;6.38;;
26036;SDS011;13810;48.376;10.944;2023-05-07T01:37:17;11.43;;;7.05;;
26036;SDS011;13810;48.376;10.944;2023-05-07T01:37:47;9.20;;;6.25;;
26036;SDS011;13810;48.376;10.944;2023-05-07T01:38:19;11.35;;;6.00;;
26036;SDS011;13810;48.376;10.944;2023-05-07T01:38:52;8.15;;;6.25;;
26036;SDS011;13810;48.376;10.944;2023-05-07T01:39:24;11.02;;;5.97;;
26036;SDS011;13810;48.376;10.944;2023-05-07T01:39:57;7.28;;;5.88;;
26036;SDS011;13810;48.376;10.944;2023-05-07T01:40:27;9.68;;;5.97;;
26036;SDS011;13810;48.376;10.944;2023-05-07T01:40:58;8.93;;;6.55;;
26036;SDS011;13810;48.376;10.944;2023-05-07T01:41:30;8.57;;;6.18;;
26036;SDS011;13810;48.376;10.944;2023-05-07T01:42:01;8.15;;;6.13;;
26036;SDS011;13810;48.376;10.944;2023-05-07T01:42:31;8.90;;;6.15;;
26036;SDS011;13810;48.376;10.944;2023-05-07T01:43:02;7.63;;;5.80;;
26036;SDS011;13810;48.376;10.944;2023-05-07T01:43:33;7.43;;;5.43;;
26036;SDS011;13810;48.376;10.944;2023-05-07T01:44:04;10.90;;;6.55;;
26036;SDS011;13810;48.376;10.944;2023-05-07T01:44:36;12.43;;;6.10;;
26036;SDS011;13810;48.376;10.944;2023-05-07T01:45:06;8.50;;;6.53;;
26036;SDS011;13810;48.376;10.944;2023-05-07T01:45:37;8.68;;;5.95;;
26036;SDS011;13810;48.376;10.944;2023-05-07T01:46:09;8.07;;;5.32;;
26036;SDS011;13810;48.376;10.944;2023-05-07T01:46:40;8.18;;;6.13;;
26036;SDS011;13810;48.376;10.944;2023-05-07T01:47:11;8.13;;;6.30;;
26036;SDS011;13810;48.376;10.944;2023-05-07T01:47:43;12.18;;;6.97;;
26036;SDS011;13810;48.376;10.944;2023-05-07T01:48:14;9.93;;;6.68;;
26036;SDS011;13810;48.376;10.944;2023-05-07T01:48:45;12.93;;;7.05;;
26036;SDS011;13810;48.376;10.944;2023-05-07T01:49:16;14.43;;;7.47;;
26036;SDS011;13810;48.376;10.944;2023-05-07T01:49:48;10.50;;;7.30;;
26036;SDS011;13810;48.376;10.944;2023-05-07T01:50:18;13.10;;;6.72;;
26036;SDS011;13810;48.376;10.944;2023-05-07T01:50:50;10.75;;;6.82;;
26036;SDS011;13810;48.376;10.944;2023-05-07T01:51:21;13.02;;;7.15;;
26036;SDS011;13810;48.376;10.944;2023-05-07T01:51:52;11.20;;;7.47;;
26036;SDS011;13810;48.376;10.944;2023-05-07T01:52:23;9.93;;;6.78;;
26036;SDS011;13810;48.376;10.944;2023-05-07T01:52:55;10.25;;;6.70;;
26036;SDS011;13810;48.376;10.944;2023-05-07T01:53:26;11.77;;;7.30;;
26036;SDS011;13810;48.376;10.944;2023-05-07T01:53:58;9.63;;;6.75;;
26036;SDS011;13810;48.376;10.944;2023-05-07T01:54:28;10.90;;;6.88;;
26036;SDS011;13810;48.376;10.944;2023-05-07T01:54:59;9.77;;;6.38;;
26036;SDS011;13810;48.376;10.944;2023-05-07T01:55:30;9.93;;;6.35;;
26036;SDS011;13810;48.376;10.944;2023-05-07T01:56:00;18.50;;;6.63;;
26036;SDS011;13810;48.376;10.944;2023-05-07T01:56:31;9.65;;;6.43;;
26036;SDS011;13810;48.376;10.944;2023-05-07T01:57:02;10.70;;;7.07;;
26036;SDS011;13810;48.376;10.944;2023-05-07T01:57:32;10.85;;;7.22;;
26036;SDS011;13810;48.376;10.944;2023-05-07T01:58:03;15.73;;;7.25;;
26036;SDS011;13810;48.376;10.944;2023-05-07T01:58:34;9.85;;;7.35;;
26036;SDS011;13810;48.376;10.944;2023-05-07T01:59:05;11.43;;;7.18;;
26036;SDS011;13810;48.376;10.944;2023-05-07T01:59:35;8.68;;;6.55;;
26036;SDS011;13810;48.376;10.944;2023-05-07T02:00:06;11.43;;;7.50;;
26036;SDS011;13810;48.376;10.944;2023-05-07T02:00:39;10.05;;;6.70;;
26036;SDS011;13810;48.376;10.944;2023-05-07T02:01:10;13.82;;;7.78;;
26036;SDS011;13810;48.376;10.944;2023-05-07T02:01:41;11.85;;;7.53;;
26036;SDS011;13810;48.376;10.944;2023-05-07T02:02:12;13.55;;;6.78;;
26036;SDS011;13810;48.376;10.944;2023-05-07T02:02:42;9.77;;;5.90;;
26036;SDS011;13810;48.376;10.944;2023-05-07T02:03:13;7.55;;;6.07;;
26036;SDS011;13810;48.376;10.944;2023-05-07T02:03:44;9.45;;;4.95;;
26036;SDS011;13810;48.376;10.944;2023-05-07T02:04:14;7.13;;;5.10;;
26036;SDS011;13810;48.376;10.944;2023-05-07T02:04:45;8.70;;;5.00;;
26036;SDS011;13810;48.376;10.944;2023-05-07T02:05:16;6.40;;;4.53;;
26036;SDS011;13810;48.376;10.944;2023-05-07T02:05:46;8.35;;;4.78;;
26036;SDS011;13810;48.376;10.944;2023-05-07T02:06:17;6.82;;;5.03;;
26036;SDS011;13810;48.376;10.944;2023-05-07T02:06:47;6.70;;;5.35;;
26036;SDS011;13810;48.376;10.944;2023-05-07T02:07:18;8.07;;;4.97;;
26036;SDS011;13810;48.376;10.944;2023-05-07T02:07:49;8.73;;;5.57;;
26036;SDS011;13810;48.376;10.944;2023-05-07T02:08:19;7.05;;;5.05;;
26036;SDS011;13810;48.376;10.944;2023-05-07T02:08:50;6.82;;;5.13;;
26036;SDS011;13810;48.376;10.944;2023-05-07T02:09:20;6.55;;;5.00;;
26036;SDS011;13810;48.376;10.944;2023-05-07T02:09:52;12.15;;;5.45;;
26036;SDS011;13810;48.376;10.944;2023-05-07T02:10:22;12.07;;;4.90;;
26036;SDS011;13810;48.376;10.944;2023-05-07T02:10:53;9.20;;;5.20;;
26036;SDS011;13810;48.376;10.944;2023-05-07T02:11:24;10.35;;;6.45;;
26036;SDS011;13810;48.376;10.944;2023-05-07T02:11:55;8.85;;;6.53;;
26036;SDS011;13810;48.376;10.944;2023-05-07T02:12:25;9.98;;;6.30;;
26036;SDS011;13810;48.376;10.944;2023-05-07T02:12:56;9.00;;;6.80;;
26036;SDS011;13810;48.376;10.944;2023-05-07T02:13:29;7.68;;;6.57;;
26036;SDS011;13810;48.376;10.944;2023-05-07T02:14:01;11.90;;;7.60;;
26036;SDS011;13810;48.376;10.944;2023-05-07T02:14:32;10.57;;;7.20;;
26036;SDS011;13810;48.376;10.944;2023-05-07T02:15:03;8.93;;;6.68;;
26036;SDS011;13810;48.376;10.944;2023-05-07T02:15:34;11.20;;;7.18;;
26036;SDS011;13810;48.376;10.944;2023-05-07T02:16:04;9.00;;;6.32;;
26036;SDS011;13810;48.376;10.944;2023-05-07T02:16:35;11.35;;;7.43;;
26036;SDS011;13810;48.376;10.944;2023-05-07T02:17:07;9.77;;;6.22;;
26036;SDS011;13810;48.376;10.944;2023-05-07T02:18:20;10.25;;;6.95;;
26036;SDS011;13810;48.376;10.944;2023-05-07T02:18:36;9.13;;;6.50;;
26036;SDS011;13810;48.376;10.944;2023-05-07T02:19:06;9.63;;;6.20;;
26036;SDS011;13810;48.376;10.944;2023-05-07T02:19:37;9.00;;;6.00;;
26036;SDS011;13810;48.376;10.944;2023-05-07T02:20:08;10.38;;;6.07;;
26036;SDS011;13810;48.376;10.944;2023-05-07T02:20:43;8.45;;;6.10;;
26036;SDS011;13810;48.376;10.944;2023-05-07T02:21:13;14.65;;;6.88;;
26036;SDS011;13810;48.376;10.944;2023-05-07T02:21:44;11.30;;;5.85;;
26036;SDS011;13810;48.376;10.944;2023-05-07T02:22:15;8.35;;;6.05;;
26036;SDS011;13810;48.376;10.944;2023-05-07T02:22:45;9.70;;;6.88;;
26036;SDS011;13810;48.376;10.944;2023-05-07T02:23:16;11.75;;;7.55;;
26036;SDS011;13810;48.376;10.944;2023-05-07T02:23:47;11.15;;;6.53;;
26036;SDS011;13810;48.376;10.944;2023-05-07T02:24:17;12.85;;;6.88;;
26036;SDS011;13810;48.376;10.944;2023-05-07T02:24:48;10.65;;;7.00;;
26036;SDS011;13810;48.376;10.944;2023-05-07T02:25:19;9.50;;;6.07;;
26036;SDS011;13810;48.376;10.944;2023-05-07T02:25:49;12.13;;;7.50;;
26036;SDS011;13810;48.376;10.944;2023-05-07T02:26:20;10.07;;;6.82;;
26036;SDS011;13810;48.376;10.944;2023-05-07T02:26:51;10.27;;;6.47;;
26036;SDS011;13810;48.376;10.944;2023-05-07T02:27:22;10.57;;;6.80;;
26036;SDS011;13810;48.376;10.944;2023-05-07T02:27:52;10.63;;;6.82;;
26036;SDS011;13810;48.376;10.944;2023-05-07T02:28:23;12.07;;;7.35;;
26036;SDS011;13810;48.376;10.944;2023-05-07T02:28:54;13.60;;;8.15;;
26036;SDS011;13810;48.376;10.944;2023-05-07T02:29:24;12.65;;;6.95;;
26036;SDS011;13810;48.376;10.944;2023-05-07T02:29:55;12.52;;;8.23;;
26036;SDS011;13810;48.376;10.944;2023-05-07T02:30:25;12.23;;;7.25;;
26036;SDS011;13810;48.376;10.944;2023-05-07T02:30:56;13.00;;;7.30;;
26036;SDS011;13810;48.376;10.944;2023-05-07T02:31:28;9.63;;;6.90;;
26036;SDS011;13810;48.376;10.944;2023-05-07T02:31:59;12.80;;;7.10;;
26036;SDS011;13810;48.376;10.944;2023-05-07T02:32:29;9.35;;;6.13;;
26036;SDS011;13810;48.376;10.944;2023-05-07T02:33:00;11.68;;;6.47;;
26036;SDS011;13810;48.376;10.944;2023-05-07T02:33:31;9.35;;;7.13;;
26036;SDS011;13810;48.376;10.944;2023-05-07T02:34:02;11.95;;;6.93;;
26036;SDS011;13810;48.376;10.944;2023-05-07T02:34:32;12.38;;;7.38;;
26036;SDS011;13810;48.376;10.944;2023-05-07T02:35:03;14.52;;;7.28;;
26036;SDS011;13810;48.376;10.944;2023-05-07T02:35:34;12.48;;;7.75;;
26036;SDS011;13810;48.376;10.944;2023-05-07T02:36:06;15.07;;;7.38;;
26036;SDS011;13810;48.376;10.944;2023-05-07T02:36:37;14.73;;;7.68;;
26036;SDS011;13810;48.376;10.944;2023-05-07T02:37:08;12.38;;;7.53;;
26036;SDS011;13810;48.376;10.944;2023-05-07T02:37:38;13.00;;;6.93;;
26036;SDS011;13810;48.376;10.944;2023-05-07T02:38:09;11.63;;;7.53;;
26036;SDS011;13810;48.376;10.944;2023-05-07T02:38:40;11.32;;;7.22;;
26036;SDS011;13810;48.376;10.944;2023-05-07T02:39:14;11.68;;;7.10;;
26036;SDS011;13810;48.376;10.944;2023-05-07T02:39:46;15.25;;;7.75;;
26036;SDS011;13810;48.376;10.944;2023-05-07T02:40:17;10.73;;;7.15;;
26036;SDS011;13810;48.376;10.944;2023-05-07T02:40:48;14.93;;;7.35;;
26036;SDS011;13810;48.376;10.944;2023-05-07T02:41:18;11.57;;;7.20;;
26036;SDS011;13810;48.376;10.944;2023-05-07T02:41:50;10.32;;;6.88;;
26036;SDS011;13810;48.376;10.944;2023-05-07T02:42:21;11.35;;;7.20;;
26036;SDS011;13810;48.376;10.944;2023-05-07T02:42:51;15.32;;;7.32;;
26036;SDS011;13810;48.376;10.944;2023-05-07T02:43:22;10.75;;;7.00;;
26036;SDS011;13810;48.376;10.944;2023-05-07T02:43:52;11.57;;;7.22;;
26036;SDS011;13810;48.376;10.944;2023-05-07T02:44:23;9.68;;;7.10;;
26036;SDS011;13810;48.376;10.944;2023-05-07T02:44:54;13.55;;;7.30;;
26036;SDS011;13810;48.376;10.944;2023-05-07T02:45:24;9.10;;;6.55;;
26036;SDS011;13810;48.376;10.944;2023-05-07T02:46:05;12.43;;;7.28;;
26036;SDS011;13810;48.376;10.944;2023-05-07T02:46:37;10.95;;;7.30;;
26036;SDS011;13810;48.376;10.944;2023-05-07T02:47:08;11.38;;;7.43;;
26036;SDS011;13810;48.376;10.944;2023-05-07T02:47:40;12.98;;;7.00;;
26036;SDS011;13810;48.376;10.944;2023-05-07T02:48:10;10.75;;;6.80;;
26036;SDS011;13810;48.376;10.944;2023-05-07T02:48:41;10.50;;;7.53;;
26036;SDS011;13810;48.376;10.944;2023-05-07T02:49:12;10.98;;;7.30;;
26036;SDS011;13810;48.376;10.944;2023-05-07T02:49:42;9.73;;;6.15;;
26036;SDS011;13810;48.376;10.944;2023-05-07T02:50:13;7.82;;;5.80;;
26036;SDS011;13810;48.376;10.944;2023-05-07T02:50:44;10.40;;;5.90;;
26036;SDS011;13810;48.376;10.944;2023-05-07T02:51:18;11.60;;;6.10;;
26036;SDS011;13810;48.376;10.944;2023-05-07T02:51:52;9.98;;;6.10;;
26036;SDS011;13810;48.376;10.944;2023-05-07T02:52:22;7.70;;;5.20;;
26036;SDS011;13810;48.376;10.944;2023-05-07T02:52:53;8.77;;;6.22;;
26036;SDS011;13810;48.376;10.944;2023-05-07T02:53:24;6.25;;;4.72;;
26036;SDS011;13810;48.376;10.944;2023-05-07T02:53:56;7.15;;;5.20;;
26036;SDS011;13810;48.376;10.944;2023-05-07T02:54:26;8.82;;;5.45;;
26036;SDS011;13810;48.376;10.944;2023-05-07T02:54:57;8.63;;;5.05;;
26036;SDS011;13810;48.376;10.944;2023-05-07T02:55:27;8.35;;;5.07;;
26036;SDS011;13810;48.376;10.944;2023-05-07T02:55:58;8.73;;;4.88;;
26036;SDS011;13810;48.376;10.944;2023-05-07T02:56:30;9.35;;;4.95;;
26036;SDS011;13810;48.376;10.944;2023-05-07T02:57:00;5.30;;;4.15;;
26036;SDS011;13810;48.376;10.944;2023-05-07T02:57:32;7.85;;;4.60;;
26036;SDS011;13810;48.376;10.944;2023-05-07T02:58:02;6.03;;;4.70;;
26036;SDS011;13810;48.376;10.944;2023-05-07T02:58:33;7.53;;;4.75;;
26036;SDS011;13810;48.376;10.944;2023-05-07T02:59:03;7.40;;;5.00;;
26036;SDS011;13810;48.376;10.944;2023-05-07T02:59:34;8.80;;;5.78;;
26036;SDS011;13810;48.376;10.944;2023-05-07T03:00:12;5.78;;;4.63;;
26036;SDS011;13810;48.376;10.944;2023-05-07T03:00:44;6.13;;;4.72;;
26036;SDS011;13810;48.376;10.944;2023-05-07T03:01:14;9.48;;;5.85;;
26036;SDS011;13810;48.376;10.944;2023-05-07T03:01:45;9.05;;;6.15;;
26036;SDS011;13810;48.376;10.944;2023-05-07T03:02:16;7.32;;;5.45;;
26036;SDS011;13810;48.376;10.944;2023-05-07T03:02:46;8.93;;;5.40;;
26036;SDS011;13810;48.376;10.944;2023-05-07T03:03:17;10.55;;;6.65;;
26036;SDS011;13810;48.376;10.944;2023-05-07T03:03:48;9.40;;;6.22;;
26036;SDS011;13810;48.376;10.944;2023-05-07T03:04:19;9.15;;;5.60;;
26036;SDS011;13810;48.376;10.944;2023-05-07T03:04:50;14.88;;;6.25;;